sensor_id;sensor_type;location;lat;lon;timestamp;P1;durP1;ratioP1;P2;durP2;ratioP2
16890;SDS011;8562;52.246;20.966;2023-08-21T00:02:19;13.93;;;9.07;;
16890;SDS011;8562;52.246;20.966;2023-08-21T00:04:44;10.10;;;8.63;;
16890;SDS011;8562;52.246;20.966;2023-08-21T00:07:09;10.53;;;9.20;;
16890;SDS011;8562;52.246;20.966;2023-08-21T00:09:36;10.60;;;8.50;;
16890;SDS011;8562;52.246;20.966;2023-08-21T00:12:01;11.03;;;8.47;;
16890;SDS011;8562;52.246;20.966;2023-08-21T00:14:27;10.47;;;9.00;;
16890;SDS011;8562;52.246;20.966;2023-08-21T00:16:52;10.30;;;9.27;;
16890;SDS011;8562;52.246;20.966;2023-08-21T00:19:17;11.33;;;9.30;;
16890;SDS011;8562;52.246;20.966;2023-08-21T00:21:43;10.77;;;8.90;;
16890;SDS011;8562;52.246;20.966;2023-08-21T00:24:08;11.60;;;9.57;;
16890;SDS011;8562;52.246;20.966;2023-08-21T00:26:33;10.87;;;9.50;;
16890;SDS011;8562;52.246;20.966;2023-08-21T00:31:40;14.53;;;9.53;;
16890;SDS011;8562;52.246;20.966;2023-08-21T00:34:06;11.00;;;9.43;;
16890;SDS011;8562;52.246;20.966;2023-08-21T00:36:31;11.83;;;9.67;;
16890;SDS011;8562;52.246;20.966;2023-08-21T00:38:56;11.40;;;10.30;;
16890;SDS011;8562;52.246;20.966;2023-08-21T00:41:22;14.80;;;9.30;;
16890;SDS011;8562;52.246;20.966;2023-08-21T00:43:47;13.17;;;10.03;;
16890;SDS011;8562;52.246;20.966;2023-08-21T00:46:12;12.13;;;9.30;;
16890;SDS011;8562;52.246;20.966;2023-08-21T00:48:38;12.80;;;9.83;;
16890;SDS011;8562;52.246;20.966;2023-08-21T00:51:03;12.03;;;9.60;;
16890;SDS011;8562;52.246;20.966;2023-08-21T00:53:29;11.80;;;10.40;;
16890;SDS011;8562;52.246;20.966;2023-08-21T00:55:54;10.53;;;9.40;;
16890;SDS011;8562;52.246;20.966;2023-08-21T00:58:20;12.43;;;10.23;;
16890;SDS011;8562;52.246;20.966;2023-08-21T01:00:45;12.27;;;10.63;;
16890;SDS011;8562;52.246;20.966;2023-08-21T01:03:12;12.00;;;10.13;;
16890;SDS011;8562;52.246;20.966;2023-08-21T01:05:38;17.97;;;11.77;;
16890;SDS011;8562;52.246;20.966;2023-08-21T01:13:34;13.87;;;11.07;;
16890;SDS011;8562;52.246;20.966;2023-08-21T01:16:01;16.17;;;10.03;;
16890;SDS011;8562;52.246;20.966;2023-08-21T01:18:27;13.10;;;11.33;;
16890;SDS011;8562;52.246;20.966;2023-08-21T01:20:53;12.77;;;10.77;;
16890;SDS011;8562;52.246;20.966;2023-08-21T01:23:34;14.70;;;10.37;;
16890;SDS011;8562;52.246;20.966;2023-08-21T01:26:00;13.73;;;10.43;;
16890;SDS011;8562;52.246;20.966;2023-08-21T01:28:25;12.47;;;9.70;;
16890;SDS011;8562;52.246;20.966;2023-08-21T01:30:51;15.77;;;11.60;;
16890;SDS011;8562;52.246;20.966;2023-08-21T01:33:20;13.67;;;10.77;;
16890;SDS011;8562;52.246;20.966;2023-08-21T01:35:46;12.57;;;11.27;;
16890;SDS011;8562;52.246;20.966;2023-08-21T01:38:11;14.93;;;11.17;;
16890;SDS011;8562;52.246;20.966;2023-08-21T01:40:36;14.00;;;10.10;;
16890;SDS011;8562;52.246;20.966;2023-08-21T01:43:02;16.77;;;11.20;;
16890;SDS011;8562;52.246;20.966;2023-08-21T01:45:27;14.63;;;11.47;;
16890;SDS011;8562;52.246;20.966;2023-08-21T01:47:52;13.03;;;11.57;;
16890;SDS011;8562;52.246;20.966;2023-08-21T01:50:18;18.87;;;12.40;;
16890;SDS011;8562;52.246;20.966;2023-08-21T01:52:43;15.20;;;11.93;;
16890;SDS011;8562;52.246;20.966;2023-08-21T01:55:08;14.37;;;12.13;;
16890;SDS011;8562;52.246;20.966;2023-08-21T01:57:35;14.63;;;11.80;;
16890;SDS011;8562;52.246;20.966;2023-08-21T02:00:01;16.93;;;11.47;;
16890;SDS011;8562;52.246;20.966;2023-08-21T02:02:26;16.73;;;11.87;;
16890;SDS011;8562;52.246;20.966;2023-08-21T02:04:52;16.20;;;11.90;;
16890;SDS011;8562;52.246;20.966;2023-08-21T02:07:17;17.33;;;12.43;;
16890;SDS011;8562;52.246;20.966;2023-08-21T02:09:42;13.07;;;10.87;;
16890;SDS011;8562;52.246;20.966;2023-08-21T02:12:09;15.20;;;12.17;;
16890;SDS011;8562;52.246;20.966;2023-08-21T02:14:35;14.67;;;11.37;;
16890;SDS011;8562;52.246;20.966;2023-08-21T02:17:00;13.97;;;10.90;;
16890;SDS011;8562;52.246;20.966;2023-08-21T02:19:25;13.17;;;10.90;;
16890;SDS011;8562;52.246;20.966;2023-08-21T02:21:50;14.20;;;11.07;;
16890;SDS011;8562;52.246;20.966;2023-08-21T02:24:16;13.33;;;11.67;;
16890;SDS011;8562;52.246;20.966;2023-08-21T02:26:43;13.83;;;10.93;;
16890;SDS011;8562;52.246;20.966;2023-08-21T02:29:10;14.30;;;11.60;;
16890;SDS011;8562;52.246;20.966;2023-08-21T02:31:35;16.83;;;12.03;;
16890;SDS011;8562;52.246;20.966;2023-08-21T02:34:00;14.43;;;11.77;;
16890;SDS011;8562;52.246;20.966;2023-08-21T02:36:26;15.33;;;10.70;;
16890;SDS011;8562;52.246;20.966;2023-08-21T02:38:51;12.63;;;11.33;;
16890;SDS011;8562;52.246;20.966;2023-08-21T02:41:17;13.63;;;11.87;;
16890;SDS011;8562;52.246;20.966;2023-08-21T02:43:43;12.90;;;11.53;;
16890;SDS011;8562;52.246;20.966;2023-08-21T02:46:09;15.33;;;11.97;;
16890;SDS011;8562;52.246;20.966;2023-08-21T02:48:34;15.10;;;12.10;;
16890;SDS011;8562;52.246;20.966;2023-08-21T02:50:59;14.47;;;11.30;;
16890;SDS011;8562;52.246;20.966;2023-08-21T02:53:26;15.93;;;11.77;;
16890;SDS011;8562;52.246;20.966;2023-08-21T02:55:52;13.90;;;11.73;;
16890;SDS011;8562;52.246;20.966;2023-08-21T02:58:17;14.93;;;12.60;;
16890;SDS011;8562;52.246;20.966;2023-08-21T03:00:42;18.27;;;12.70;;
16890;SDS011;8562;52.246;20.966;2023-08-21T03:03:07;16.40;;;12.77;;
16890;SDS011;8562;52.246;20.966;2023-08-21T03:05:33;18.93;;;11.70;;
16890;SDS011;8562;52.246;20.966;2023-08-21T03:07:58;16.77;;;11.57;;
16890;SDS011;8562;52.246;20.966;2023-08-21T03:10:24;15.50;;;12.67;;
16890;SDS011;8562;52.246;20.966;2023-08-21T03:12:49;14.07;;;12.53;;
16890;SDS011;8562;52.246;20.966;2023-08-21T03:15:14;13.37;;;11.33;;
16890;SDS011;8562;52.246;20.966;2023-08-21T03:17:41;14.73;;;11.77;;
16890;SDS011;8562;52.246;20.966;2023-08-21T03:20:06;15.17;;;12.53;;
16890;SDS011;8562;52.246;20.966;2023-08-21T03:22:32;13.97;;;12.47;;
16890;SDS011;8562;52.246;20.966;2023-08-21T03:24:57;15.50;;;12.60;;
16890;SDS011;8562;52.246;20.966;2023-08-21T03:27:23;14.87;;;12.33;;
16890;SDS011;8562;52.246;20.966;2023-08-21T03:29:50;14.13;;;11.47;;
16890;SDS011;8562;52.246;20.966;2023-08-21T03:32:18;16.30;;;11.90;;
16890;SDS011;8562;52.246;20.966;2023-08-21T03:34:44;19.40;;;12.43;;
16890;SDS011;8562;52.246;20.966;2023-08-21T03:37:09;14.63;;;12.07;;
16890;SDS011;8562;52.246;20.966;2023-08-21T03:39:35;13.87;;;12.37;;
16890;SDS011;8562;52.246;20.966;2023-08-21T03:42:01;13.23;;;11.90;;
16890;SDS011;8562;52.246;20.966;2023-08-21T03:44:26;13.70;;;11.40;;
16890;SDS011;8562;52.246;20.966;2023-08-21T03:46:52;13.00;;;11.20;;
16890;SDS011;8562;52.246;20.966;2023-08-21T03:49:17;14.77;;;11.97;;
16890;SDS011;8562;52.246;20.966;2023-08-21T03:51:42;15.70;;;13.07;;
16890;SDS011;8562;52.246;20.966;2023-08-21T03:54:08;17.50;;;11.93;;
16890;SDS011;8562;52.246;20.966;2023-08-21T03:56:35;14.03;;;12.30;;
16890;SDS011;8562;52.246;20.966;2023-08-21T03:59:00;17.00;;;13.27;;
16890;SDS011;8562;52.246;20.966;2023-08-21T04:01:25;16.57;;;13.00;;
16890;SDS011;8562;52.246;20.966;2023-08-21T04:03:51;17.13;;;13.47;;
16890;SDS011;8562;52.246;20.966;2023-08-21T04:06:17;14.93;;;12.53;;
16890;SDS011;8562;52.246;20.966;2023-08-21T04:08:42;21.57;;;13.37;;
16890;SDS011;8562;52.246;20.966;2023-08-21T04:11:07;15.20;;;12.83;;
16890;SDS011;8562;52.246;20.966;2023-08-21T04:13:32;15.27;;;12.70;;
16890;SDS011;8562;52.246;20.966;2023-08-21T04:15:58;20.63;;;12.77;;
16890;SDS011;8562;52.246;20.966;2023-08-21T04:18:23;16.03;;;12.80;;
16890;SDS011;8562;52.246;20.966;2023-08-21T04:20:49;18.23;;;13.03;;
16890;SDS011;8562;52.246;20.966;2023-08-21T04:23:15;15.87;;;12.30;;
16890;SDS011;8562;52.246;20.966;2023-08-21T04:25:40;15.37;;;12.13;;
16890;SDS011;8562;52.246;20.966;2023-08-21T04:28:05;16.20;;;13.37;;
16890;SDS011;8562;52.246;20.966;2023-08-21T04:30:33;18.10;;;13.37;;
16890;SDS011;8562;52.246;20.966;2023-08-21T04:32:58;15.40;;;12.43;;
16890;SDS011;8562;52.246;20.966;2023-08-21T04:35:24;20.47;;;12.50;;
16890;SDS011;8562;52.246;20.966;2023-08-21T04:37:49;14.43;;;12.47;;
16890;SDS011;8562;52.246;20.966;2023-08-21T04:40:18;16.20;;;13.67;;
16890;SDS011;8562;52.246;20.966;2023-08-21T04:42:46;16.87;;;13.67;;
16890;SDS011;8562;52.246;20.966;2023-08-21T04:45:11;18.90;;;14.47;;
16890;SDS011;8562;52.246;20.966;2023-08-21T04:47:37;24.83;;;14.40;;
16890;SDS011;8562;52.246;20.966;2023-08-21T04:50:03;17.67;;;13.17;;
16890;SDS011;8562;52.246;20.966;2023-08-21T04:52:29;15.20;;;12.17;;
16890;SDS011;8562;52.246;20.966;2023-08-21T04:54:54;16.67;;;12.90;;
16890;SDS011;8562;52.246;20.966;2023-08-21T04:57:20;16.17;;;13.43;;
16890;SDS011;8562;52.246;20.966;2023-08-21T04:59:46;16.63;;;14.23;;
16890;SDS011;8562;52.246;20.966;2023-08-21T05:02:12;25.37;;;12.37;;
16890;SDS011;8562;52.246;20.966;2023-08-21T05:04:38;15.10;;;12.37;;
16890;SDS011;8562;52.246;20.966;2023-08-21T05:07:04;16.43;;;13.23;;
16890;SDS011;8562;52.246;20.966;2023-08-21T05:09:30;17.03;;;12.17;;
16890;SDS011;8562;52.246;20.966;2023-08-21T05:11:56;14.30;;;12.77;;
16890;SDS011;8562;52.246;20.966;2023-08-21T05:14:21;16.10;;;12.40;;
16890;SDS011;8562;52.246;20.966;2023-08-21T05:16:48;18.20;;;13.47;;
16890;SDS011;8562;52.246;20.966;2023-08-21T05:19:13;17.27;;;12.87;;
16890;SDS011;8562;52.246;20.966;2023-08-21T05:21:39;14.90;;;13.30;;
16890;SDS011;8562;52.246;20.966;2023-08-21T05:24:04;16.90;;;13.10;;
16890;SDS011;8562;52.246;20.966;2023-08-21T05:26:32;17.90;;;12.27;;
16890;SDS011;8562;52.246;20.966;2023-08-21T05:28:57;18.00;;;13.43;;
16890;SDS011;8562;52.246;20.966;2023-08-21T05:31:22;18.13;;;13.40;;
16890;SDS011;8562;52.246;20.966;2023-08-21T05:33:51;13.77;;;12.33;;
16890;SDS011;8562;52.246;20.966;2023-08-21T05:36:16;14.23;;;12.13;;
16890;SDS011;8562;52.246;20.966;2023-08-21T05:38:42;16.77;;;12.90;;
16890;SDS011;8562;52.246;20.966;2023-08-21T05:41:07;15.47;;;12.33;;
16890;SDS011;8562;52.246;20.966;2023-08-21T05:43:33;13.07;;;11.33;;
16890;SDS011;8562;52.246;20.966;2023-08-21T05:45:59;19.60;;;12.60;;
16890;SDS011;8562;52.246;20.966;2023-08-21T05:48:25;14.50;;;12.37;;
16890;SDS011;8562;52.246;20.966;2023-08-21T05:50:50;14.60;;;12.53;;
16890;SDS011;8562;52.246;20.966;2023-08-21T05:53:16;17.20;;;12.80;;
16890;SDS011;8562;52.246;20.966;2023-08-21T05:55:41;14.00;;;12.43;;
16890;SDS011;8562;52.246;20.966;2023-08-21T05:58:06;15.10;;;12.13;;
16890;SDS011;8562;52.246;20.966;2023-08-21T06:00:33;15.03;;;11.77;;
16890;SDS011;8562;52.246;20.966;2023-08-21T06:03:00;16.57;;;13.13;;
16890;SDS011;8562;52.246;20.966;2023-08-21T06:05:47;16.23;;;11.40;;
16890;SDS011;8562;52.246;20.966;2023-08-21T06:08:12;12.80;;;11.27;;
16890;SDS011;8562;52.246;20.966;2023-08-21T06:10:38;17.53;;;13.00;;
16890;SDS011;8562;52.246;20.966;2023-08-21T06:13:03;13.67;;;12.23;;
16890;SDS011;8562;52.246;20.966;2023-08-21T06:15:28;20.77;;;13.33;;
16890;SDS011;8562;52.246;20.966;2023-08-21T06:17:54;12.87;;;11.57;;
16890;SDS011;8562;52.246;20.966;2023-08-21T06:20:20;12.73;;;11.43;;
16890;SDS011;8562;52.246;20.966;2023-08-21T06:22:45;16.63;;;13.00;;
16890;SDS011;8562;52.246;20.966;2023-08-21T06:25:11;14.20;;;12.20;;
16890;SDS011;8562;52.246;20.966;2023-08-21T06:27:36;17.80;;;12.73;;
16890;SDS011;8562;52.246;20.966;2023-08-21T06:30:01;14.30;;;11.67;;
16890;SDS011;8562;52.246;20.966;2023-08-21T06:32:28;16.70;;;12.07;;
16890;SDS011;8562;52.246;20.966;2023-08-21T06:34:53;17.23;;;12.17;;
16890;SDS011;8562;52.246;20.966;2023-08-21T06:37:18;13.57;;;12.17;;
16890;SDS011;8562;52.246;20.966;2023-08-21T06:39:45;16.93;;;11.90;;
16890;SDS011;8562;52.246;20.966;2023-08-21T06:42:11;14.93;;;11.80;;
16890;SDS011;8562;52.246;20.966;2023-08-21T06:44:42;15.40;;;12.57;;
16890;SDS011;8562;52.246;20.966;2023-08-21T06:47:07;14.53;;;12.77;;
16890;SDS011;8562;52.246;20.966;2023-08-21T06:49:32;13.30;;;11.90;;
16890;SDS011;8562;52.246;20.966;2023-08-21T06:51:58;13.80;;;11.47;;
16890;SDS011;8562;52.246;20.966;2023-08-21T06:54:23;14.57;;;11.70;;
16890;SDS011;8562;52.246;20.966;2023-08-21T06:56:48;15.17;;;12.17;;
16890;SDS011;8562;52.246;20.966;2023-08-21T06:59:14;11.80;;;10.50;;
16890;SDS011;8562;52.246;20.966;2023-08-21T07:01:40;12.43;;;11.07;;
16890;SDS011;8562;52.246;20.966;2023-08-21T07:04:05;14.53;;;11.23;;
16890;SDS011;8562;52.246;20.966;2023-08-21T07:06:31;17.27;;;11.53;;
16890;SDS011;8562;52.246;20.966;2023-08-21T07:08:56;14.03;;;11.60;;
16890;SDS011;8562;52.246;20.966;2023-08-21T07:11:21;13.03;;;11.60;;
16890;SDS011;8562;52.246;20.966;2023-08-21T07:13:47;13.20;;;11.20;;
16890;SDS011;8562;52.246;20.966;2023-08-21T07:16:12;13.57;;;10.77;;
16890;SDS011;8562;52.246;20.966;2023-08-21T07:18:37;13.87;;;11.80;;
16890;SDS011;8562;52.246;20.966;2023-08-21T07:21:03;14.43;;;11.07;;
16890;SDS011;8562;52.246;20.966;2023-08-21T07:23:29;18.57;;;11.90;;
16890;SDS011;8562;52.246;20.966;2023-08-21T07:25:55;13.57;;;11.40;;
16890;SDS011;8562;52.246;20.966;2023-08-21T07:28:20;13.20;;;10.97;;
16890;SDS011;8562;52.246;20.966;2023-08-21T07:30:45;15.60;;;12.10;;
16890;SDS011;8562;52.246;20.966;2023-08-21T07:33:11;14.40;;;10.93;;
16890;SDS011;8562;52.246;20.966;2023-08-21T07:35:36;16.47;;;11.53;;
16890;SDS011;8562;52.246;20.966;2023-08-21T07:38:02;14.80;;;11.93;;
16890;SDS011;8562;52.246;20.966;2023-08-21T07:40:27;15.73;;;11.23;;
16890;SDS011;8562;52.246;20.966;2023-08-21T07:42:52;15.27;;;12.00;;
16890;SDS011;8562;52.246;20.966;2023-08-21T07:45:19;13.80;;;11.47;;
16890;SDS011;8562;52.246;20.966;2023-08-21T07:47:44;13.40;;;11.47;;
16890;SDS011;8562;52.246;20.966;2023-08-21T07:50:09;16.37;;;10.90;;
16890;SDS011;8562;52.246;20.966;2023-08-21T07:52:35;13.87;;;11.97;;
16890;SDS011;8562;52.246;20.966;2023-08-21T07:55:01;15.33;;;11.03;;
16890;SDS011;8562;52.246;20.966;2023-08-21T07:57:29;13.27;;;11.50;;
16890;SDS011;8562;52.246;20.966;2023-08-21T07:59:54;13.87;;;11.40;;
16890;SDS011;8562;52.246;20.966;2023-08-21T08:02:20;16.57;;;12.80;;
16890;SDS011;8562;52.246;20.966;2023-08-21T08:04:45;13.73;;;11.80;;
16890;SDS011;8562;52.246;20.966;2023-08-21T08:07:11;16.57;;;11.77;;
16890;SDS011;8562;52.246;20.966;2023-08-21T08:09:36;14.20;;;12.20;;
16890;SDS011;8562;52.246;20.966;2023-08-21T08:12:01;13.50;;;11.47;;
16890;SDS011;8562;52.246;20.966;2023-08-21T08:14:27;13.13;;;10.47;;
16890;SDS011;8562;52.246;20.966;2023-08-21T08:16:52;12.50;;;10.07;;
16890;SDS011;8562;52.246;20.966;2023-08-21T08:19:17;14.33;;;11.20;;
16890;SDS011;8562;52.246;20.966;2023-08-21T08:21:43;16.37;;;11.57;;
16890;SDS011;8562;52.246;20.966;2023-08-21T08:24:08;14.40;;;10.00;;
16890;SDS011;8562;52.246;20.966;2023-08-21T08:26:34;14.67;;;10.30;;
16890;SDS011;8562;52.246;20.966;2023-08-21T08:28:59;12.77;;;10.67;;
16890;SDS011;8562;52.246;20.966;2023-08-21T08:31:24;12.73;;;10.47;;
16890;SDS011;8562;52.246;20.966;2023-08-21T08:33:50;11.47;;;9.50;;
16890;SDS011;8562;52.246;20.966;2023-08-21T08:36:16;11.40;;;9.53;;
16890;SDS011;8562;52.246;20.966;2023-08-21T08:38:41;14.27;;;10.27;;
16890;SDS011;8562;52.246;20.966;2023-08-21T08:41:17;12.13;;;9.70;;
16890;SDS011;8562;52.246;20.966;2023-08-21T08:43:46;10.47;;;9.03;;
16890;SDS011;8562;52.246;20.966;2023-08-21T08:46:12;9.93;;;8.73;;
16890;SDS011;8562;52.246;20.966;2023-08-21T08:48:38;9.40;;;8.40;;
16890;SDS011;8562;52.246;20.966;2023-08-21T08:51:04;10.63;;;8.83;;
16890;SDS011;8562;52.246;20.966;2023-08-21T08:53:29;10.33;;;8.17;;
16890;SDS011;8562;52.246;20.966;2023-08-21T08:55:54;8.90;;;7.50;;
16890;SDS011;8562;52.246;20.966;2023-08-21T08:58:20;9.80;;;7.53;;
16890;SDS011;8562;52.246;20.966;2023-08-21T09:00:45;10.67;;;7.90;;
16890;SDS011;8562;52.246;20.966;2023-08-21T09:03:10;8.13;;;7.33;;
16890;SDS011;8562;52.246;20.966;2023-08-21T09:05:38;9.10;;;7.97;;
16890;SDS011;8562;52.246;20.966;2023-08-21T09:08:10;9.57;;;6.93;;
16890;SDS011;8562;52.246;20.966;2023-08-21T09:10:39;11.40;;;7.30;;
16890;SDS011;8562;52.246;20.966;2023-08-21T09:13:10;7.90;;;7.13;;
16890;SDS011;8562;52.246;20.966;2023-08-21T09:15:36;8.70;;;7.17;;
16890;SDS011;8562;52.246;20.966;2023-08-21T09:18:02;8.20;;;7.20;;
16890;SDS011;8562;52.246;20.966;2023-08-21T09:20:27;7.63;;;6.93;;
16890;SDS011;8562;52.246;20.966;2023-08-21T09:22:53;6.93;;;6.23;;
16890;SDS011;8562;52.246;20.966;2023-08-21T09:25:19;7.40;;;6.13;;
16890;SDS011;8562;52.246;20.966;2023-08-21T09:27:44;6.17;;;5.57;;
16890;SDS011;8562;52.246;20.966;2023-08-21T09:30:10;8.00;;;5.73;;
16890;SDS011;8562;52.246;20.966;2023-08-21T09:35:18;5.90;;;5.33;;
16890;SDS011;8562;52.246;20.966;2023-08-21T09:37:44;5.57;;;4.87;;
16890;SDS011;8562;52.246;20.966;2023-08-21T09:40:11;7.40;;;5.47;;
16890;SDS011;8562;52.246;20.966;2023-08-21T09:42:36;8.30;;;5.57;;
16890;SDS011;8562;52.246;20.966;2023-08-21T09:45:04;6.00;;;5.40;;
16890;SDS011;8562;52.246;20.966;2023-08-21T09:47:29;5.70;;;5.10;;
16890;SDS011;8562;52.246;20.966;2023-08-21T09:49:55;6.63;;;4.70;;
16890;SDS011;8562;52.246;20.966;2023-08-21T09:52:20;5.20;;;4.43;;
16890;SDS011;8562;52.246;20.966;2023-08-21T09:54:46;7.13;;;5.20;;
16890;SDS011;8562;52.246;20.966;2023-08-21T09:57:12;4.70;;;4.23;;
16890;SDS011;8562;52.246;20.966;2023-08-21T09:59:37;4.43;;;3.90;;
16890;SDS011;8562;52.246;20.966;2023-08-21T10:02:05;5.10;;;3.30;;
16890;SDS011;8562;52.246;20.966;2023-08-21T10:04:31;3.53;;;3.10;;
16890;SDS011;8562;52.246;20.966;2023-08-21T10:06:57;4.77;;;3.40;;
16890;SDS011;8562;52.246;20.966;2023-08-21T10:09:23;4.60;;;3.57;;
16890;SDS011;8562;52.246;20.966;2023-08-21T10:11:48;4.67;;;3.00;;
16890;SDS011;8562;52.246;20.966;2023-08-21T10:14:13;3.60;;;3.27;;
16890;SDS011;8562;52.246;20.966;2023-08-21T10:16:39;5.73;;;3.67;;
16890;SDS011;8562;52.246;20.966;2023-08-21T10:19:04;5.87;;;3.27;;
16890;SDS011;8562;52.246;20.966;2023-08-21T10:21:34;3.63;;;3.33;;
16890;SDS011;8562;52.246;20.966;2023-08-21T10:23:59;3.27;;;2.97;;
16890;SDS011;8562;52.246;20.966;2023-08-21T10:26:25;3.10;;;2.80;;
16890;SDS011;8562;52.246;20.966;2023-08-21T10:28:51;4.10;;;3.00;;
16890;SDS011;8562;52.246;20.966;2023-08-21T10:33:54;3.67;;;2.70;;
16890;SDS011;8562;52.246;20.966;2023-08-21T10:39:04;3.67;;;3.37;;
16890;SDS011;8562;52.246;20.966;2023-08-21T10:41:37;3.47;;;3.13;;
16890;SDS011;8562;52.246;20.966;2023-08-21T10:44:02;3.50;;;3.10;;
16890;SDS011;8562;52.246;20.966;2023-08-21T10:46:30;3.93;;;3.40;;
16890;SDS011;8562;52.246;20.966;2023-08-21T10:49:14;2.90;;;2.70;;
16890;SDS011;8562;52.246;20.966;2023-08-21T10:51:39;4.63;;;3.00;;
16890;SDS011;8562;52.246;20.966;2023-08-21T10:54:10;3.53;;;3.00;;
16890;SDS011;8562;52.246;20.966;2023-08-21T10:56:35;3.37;;;3.07;;
16890;SDS011;8562;52.246;20.966;2023-08-21T10:59:01;4.97;;;3.87;;
16890;SDS011;8562;52.246;20.966;2023-08-21T11:01:26;5.33;;;3.30;;
16890;SDS011;8562;52.246;20.966;2023-08-21T11:03:51;4.07;;;3.63;;
16890;SDS011;8562;52.246;20.966;2023-08-21T11:06:18;4.13;;;3.73;;
16890;SDS011;8562;52.246;20.966;2023-08-21T11:08:43;3.90;;;3.50;;
16890;SDS011;8562;52.246;20.966;2023-08-21T11:11:09;4.90;;;3.40;;
16890;SDS011;8562;52.246;20.966;2023-08-21T11:13:35;3.83;;;3.43;;
16890;SDS011;8562;52.246;20.966;2023-08-21T11:16:01;4.20;;;3.67;;
16890;SDS011;8562;52.246;20.966;2023-08-21T11:18:33;4.27;;;3.37;;
16890;SDS011;8562;52.246;20.966;2023-08-21T11:21:05;5.43;;;3.23;;
16890;SDS011;8562;52.246;20.966;2023-08-21T11:23:34;4.30;;;3.77;;
16890;SDS011;8562;52.246;20.966;2023-08-21T11:26:00;3.87;;;2.97;;
16890;SDS011;8562;52.246;20.966;2023-08-21T11:28:25;3.37;;;3.07;;
16890;SDS011;8562;52.246;20.966;2023-08-21T11:30:50;4.13;;;3.30;;
16890;SDS011;8562;52.246;20.966;2023-08-21T11:33:15;4.37;;;2.93;;
16890;SDS011;8562;52.246;20.966;2023-08-21T11:35:41;4.30;;;3.10;;
16890;SDS011;8562;52.246;20.966;2023-08-21T11:38:13;4.27;;;2.97;;
16890;SDS011;8562;52.246;20.966;2023-08-21T11:40:38;3.10;;;2.77;;
16890;SDS011;8562;52.246;20.966;2023-08-21T11:43:03;2.93;;;2.40;;
16890;SDS011;8562;52.246;20.966;2023-08-21T11:45:30;3.73;;;2.23;;
16890;SDS011;8562;52.246;20.966;2023-08-21T11:47:55;2.73;;;2.20;;
16890;SDS011;8562;52.246;20.966;2023-08-21T11:50:21;2.57;;;2.37;;
16890;SDS011;8562;52.246;20.966;2023-08-21T11:52:46;4.40;;;2.97;;
16890;SDS011;8562;52.246;20.966;2023-08-21T11:55:11;3.90;;;2.30;;
16890;SDS011;8562;52.246;20.966;2023-08-21T11:57:49;3.20;;;2.77;;
16890;SDS011;8562;52.246;20.966;2023-08-21T12:00:15;4.67;;;1.97;;
16890;SDS011;8562;52.246;20.966;2023-08-21T12:02:53;3.90;;;2.40;;
16890;SDS011;8562;52.246;20.966;2023-08-21T12:05:18;2.60;;;2.40;;
16890;SDS011;8562;52.246;20.966;2023-08-21T12:07:44;3.40;;;2.53;;
16890;SDS011;8562;52.246;20.966;2023-08-21T12:10:10;3.40;;;2.80;;
16890;SDS011;8562;52.246;20.966;2023-08-21T12:12:35;2.90;;;2.47;;
16890;SDS011;8562;52.246;20.966;2023-08-21T12:15:00;3.17;;;2.10;;
16890;SDS011;8562;52.246;20.966;2023-08-21T12:17:25;4.27;;;2.93;;
16890;SDS011;8562;52.246;20.966;2023-08-21T12:19:51;3.20;;;2.53;;
16890;SDS011;8562;52.246;20.966;2023-08-21T12:22:16;3.67;;;2.27;;
16890;SDS011;8562;52.246;20.966;2023-08-21T12:24:41;3.03;;;1.90;;
16890;SDS011;8562;52.246;20.966;2023-08-21T12:27:07;3.00;;;1.90;;
16890;SDS011;8562;52.246;20.966;2023-08-21T12:29:32;2.87;;;2.53;;
16890;SDS011;8562;52.246;20.966;2023-08-21T12:31:57;3.37;;;2.03;;
16890;SDS011;8562;52.246;20.966;2023-08-21T12:34:23;2.50;;;2.10;;
16890;SDS011;8562;52.246;20.966;2023-08-21T12:36:50;2.23;;;1.93;;
16890;SDS011;8562;52.246;20.966;2023-08-21T12:39:15;2.83;;;2.33;;
16890;SDS011;8562;52.246;20.966;2023-08-21T12:41:41;3.00;;;2.00;;
16890;SDS011;8562;52.246;20.966;2023-08-21T12:44:07;2.27;;;2.07;;
16890;SDS011;8562;52.246;20.966;2023-08-21T12:46:34;5.03;;;2.43;;
16890;SDS011;8562;52.246;20.966;2023-08-21T12:48:59;3.70;;;2.27;;
16890;SDS011;8562;52.246;20.966;2023-08-21T12:51:26;2.27;;;1.70;;
16890;SDS011;8562;52.246;20.966;2023-08-21T12:53:52;2.07;;;1.87;;
16890;SDS011;8562;52.246;20.966;2023-08-21T12:56:17;2.17;;;1.80;;
16890;SDS011;8562;52.246;20.966;2023-08-21T12:58:43;1.93;;;1.73;;
16890;SDS011;8562;52.246;20.966;2023-08-21T13:01:08;2.60;;;1.63;;
16890;SDS011;8562;52.246;20.966;2023-08-21T13:03:33;1.50;;;1.40;;
16890;SDS011;8562;52.246;20.966;2023-08-21T13:05:59;1.70;;;1.60;;
16890;SDS011;8562;52.246;20.966;2023-08-21T13:08:24;3.63;;;1.70;;
16890;SDS011;8562;52.246;20.966;2023-08-21T13:10:49;3.30;;;1.80;;
16890;SDS011;8562;52.246;20.966;2023-08-21T13:13:15;2.50;;;1.63;;
16890;SDS011;8562;52.246;20.966;2023-08-21T13:15:40;2.03;;;1.50;;
16890;SDS011;8562;52.246;20.966;2023-08-21T13:18:05;5.13;;;1.53;;
16890;SDS011;8562;52.246;20.966;2023-08-21T13:20:31;2.23;;;1.60;;
16890;SDS011;8562;52.246;20.966;2023-08-21T13:22:56;3.50;;;1.40;;
16890;SDS011;8562;52.246;20.966;2023-08-21T13:25:22;2.43;;;1.67;;
16890;SDS011;8562;52.246;20.966;2023-08-21T13:27:48;1.60;;;1.40;;
16890;SDS011;8562;52.246;20.966;2023-08-21T13:30:13;2.30;;;1.40;;
16890;SDS011;8562;52.246;20.966;2023-08-21T13:32:39;4.10;;;1.73;;
16890;SDS011;8562;52.246;20.966;2023-08-21T13:35:04;4.10;;;1.83;;
16890;SDS011;8562;52.246;20.966;2023-08-21T13:37:32;2.27;;;1.50;;
16890;SDS011;8562;52.246;20.966;2023-08-21T13:39:57;2.30;;;1.30;;
16890;SDS011;8562;52.246;20.966;2023-08-21T13:42:25;1.80;;;1.50;;
16890;SDS011;8562;52.246;20.966;2023-08-21T13:44:50;2.80;;;1.70;;
16890;SDS011;8562;52.246;20.966;2023-08-21T13:47:16;1.93;;;1.53;;
16890;SDS011;8562;52.246;20.966;2023-08-21T13:49:41;2.50;;;1.60;;
16890;SDS011;8562;52.246;20.966;2023-08-21T13:52:06;2.53;;;1.30;;
16890;SDS011;8562;52.246;20.966;2023-08-21T13:54:31;1.60;;;1.40;;
16890;SDS011;8562;52.246;20.966;2023-08-21T13:56:57;1.67;;;1.30;;
16890;SDS011;8562;52.246;20.966;2023-08-21T13:59:22;2.27;;;1.40;;
16890;SDS011;8562;52.246;20.966;2023-08-21T14:01:47;1.90;;;1.40;;
16890;SDS011;8562;52.246;20.966;2023-08-21T14:04:13;1.47;;;1.37;;
16890;SDS011;8562;52.246;20.966;2023-08-21T14:06:38;1.50;;;1.40;;
16890;SDS011;8562;52.246;20.966;2023-08-21T14:09:03;2.63;;;1.20;;
16890;SDS011;8562;52.246;20.966;2023-08-21T14:11:28;3.43;;;1.47;;
16890;SDS011;8562;52.246;20.966;2023-08-21T14:13:54;1.70;;;1.10;;
16890;SDS011;8562;52.246;20.966;2023-08-21T14:16:19;1.47;;;1.37;;
16890;SDS011;8562;52.246;20.966;2023-08-21T14:18:44;3.60;;;1.43;;
16890;SDS011;8562;52.246;20.966;2023-08-21T14:21:10;2.70;;;1.30;;
16890;SDS011;8562;52.246;20.966;2023-08-21T14:23:35;1.97;;;1.10;;
16890;SDS011;8562;52.246;20.966;2023-08-21T14:26:00;4.23;;;1.30;;
16890;SDS011;8562;52.246;20.966;2023-08-21T14:28:26;1.83;;;1.63;;
16890;SDS011;8562;52.246;20.966;2023-08-21T14:30:51;2.93;;;1.20;;
16890;SDS011;8562;52.246;20.966;2023-08-21T14:33:17;3.67;;;1.40;;
16890;SDS011;8562;52.246;20.966;2023-08-21T14:35:43;2.37;;;1.03;;
16890;SDS011;8562;52.246;20.966;2023-08-21T14:38:09;1.93;;;1.23;;
16890;SDS011;8562;52.246;20.966;2023-08-21T14:40:34;3.73;;;1.40;;
16890;SDS011;8562;52.246;20.966;2023-08-21T14:43:00;3.83;;;1.53;;